Time;durP1;ratioP1;P1;durP2;ratioP2;P2;SDS_P1;SDS_P2;PMS_P1;PMS_P2;Temp;Humidity;BMP_temperature;BMP_pressure;BME280_temperature;BME280_humidity;BME280_pressure;Samples;Min_cycle;Max_cycle;Signal;HPM_P1;HPM_P2
2021/04/06 00:00:08;;;;;;;17.65;8.80;;;-0.70;99.90;;;;;;5092609;28;20020;-76
2021/04/06 00:02:35;;;;;;;13.98;8.57;;;-0.80;99.90;;;;;;5092304;28;20493;-76
2021/04/06 00:05:05;;;;;;;13.93;6.97;;;-0.70;99.90;;;;;;5092328;28;20017;-75
2021/04/06 00:07:32;;;;;;;16.90;7.63;;;-0.70;99.90;;;;;;5074275;28;20069;-76
2021/04/06 00:10:09;;;;;;;14.05;7.70;;;-0.60;99.90;;;;;;5092919;28;20032;-76
2021/04/06 00:12:36;;;;;;;12.02;7.13;;;-0.70;99.90;;;;;;5092337;28;20027;-76
2021/04/06 00:15:05;;;;;;;13.23;7.30;;;-0.70;99.90;;;;;;5072442;28;20029;-76
2021/04/06 00:17:31;;;;;;;13.95;8.30;;;-0.80;99.90;;;;;;5071759;28;20066;-76
2021/04/06 00:20:00;;;;;;;13.00;7.82;;;-0.70;99.90;;;;;;5072121;28;20039;-76
2021/04/06 00:22:28;;;;;;;12.75;8.57;;;-0.70;99.90;;;;;;5071651;28;20503;-76
2021/04/06 00:24:55;;;;;;;15.32;8.20;;;-0.70;99.90;;;;;;5070772;28;20021;-76
2021/04/06 00:27:29;;;;;;;18.92;8.90;;;-0.80;99.90;;;;;;5053946;28;20068;-77
2021/04/06 00:29:57;;;;;;;11.30;7.80;;;-0.80;99.90;;;;;;5054097;28;20021;-76
2021/04/06 00:32:26;;;;;;;16.65;8.65;;;-0.80;99.90;;;;;;5053830;28;20067;-77
2021/04/06 00:34:53;;;;;;;13.73;9.13;;;-0.70;99.90;;;;;;5071922;28;20025;-75
2021/04/06 00:37:19;;;;;;;15.60;8.75;;;-0.80;99.90;;;;;;5071784;28;20546;-76
2021/04/06 00:39:47;;;;;;;13.40;9.00;;;-0.80;99.90;;;;;;5085577;28;20032;-75
2021/04/06 00:42:19;;;;;;;17.50;9.65;;;-0.80;99.90;;;;;;5095303;28;20032;-76
2021/04/06 00:44:54;;;;;;;19.35;10.60;;;-0.90;99.90;;;;;;5077639;28;20031;-75
2021/04/06 00:47:28;;;;;;;20.05;10.43;;;-0.80;99.90;;;;;;5077455;28;20086;-76
2021/04/06 00:49:57;;;;;;;21.48;11.32;;;-0.80;99.90;;;;;;5095588;28;20016;-75
2021/04/06 00:52:25;;;;;;;18.30;10.05;;;-0.80;99.90;;;;;;5095495;28;20012;-76
2021/04/06 00:54:52;;;;;;;22.35;12.18;;;-0.90;99.90;;;;;;5077075;28;20024;-76
2021/04/06 00:57:19;;;;;;;16.20;10.43;;;-0.90;99.90;;;;;;5077184;28;20473;-75
2021/04/06 01:00:13;;;;;;;19.65;10.30;;;-0.80;99.90;;;;;;5082834;28;20024;-76
2021/04/06 01:02:43;;;;;;;24.10;11.68;;;-0.90;99.90;;;;;;5072472;28;20142;-76
2021/04/06 01:05:10;;;;;;;20.70;10.60;;;-0.90;99.90;;;;;;5057061;28;20013;-76
2021/04/06 01:07:36;;;;;;;22.80;12.25;;;-0.90;99.90;;;;;;5074883;28;20035;-76
2021/04/06 01:10:06;;;;;;;22.00;12.60;;;-0.90;99.90;;;;;;5057061;28;20422;-75
2021/04/06 01:12:32;;;;;;;18.40;12.20;;;-0.80;99.90;;;;;;5056914;28;20028;-76
2021/04/06 01:14:58;;;;;;;27.60;13.10;;;-0.80;99.90;;;;;;5057110;28;20052;-75
2021/04/06 01:17:31;;;;;;;21.42;12.75;;;-0.80;99.90;;;;;;5074837;28;20503;-76
2021/04/06 01:20:04;;;;;;;19.90;11.90;;;-0.80;99.90;;;;;;5074710;28;20115;-75
2021/04/06 01:22:30;;;;;;;22.00;11.32;;;-0.80;99.90;;;;;;5074698;28;20066;-75
2021/04/06 01:24:56;;;;;;;19.73;12.10;;;-0.80;99.90;;;;;;5082447;28;20081;-75
2021/04/06 01:27:21;;;;;;;26.45;11.65;;;-0.80;99.90;;;;;;5094484;28;20020;-75
2021/04/06 01:29:50;;;;;;;21.98;9.43;;;-0.80;99.90;;;;;;5094796;28;20107;-75
2021/04/06 01:32:18;;;;;;;22.48;11.38;;;-0.90;99.90;;;;;;5076758;28;20496;-76
2021/04/06 01:34:44;;;;;;;20.30;11.63;;;-0.80;99.90;;;;;;5094701;28;20102;-75
2021/04/06 01:37:10;;;;;;;19.30;11.50;;;-0.80;99.90;;;;;;5094719;28;20477;-76
2021/04/06 01:39:36;;;;;;;17.63;10.38;;;-0.80;99.90;;;;;;5094310;28;20051;-75
2021/04/06 01:42:05;;;;;;;23.60;12.07;;;-0.80;99.90;;;;;;5094501;28;20443;-75
2021/04/06 01:44:34;;;;;;;15.77;9.68;;;-0.80;99.90;;;;;;5076178;28;20118;-75
2021/04/06 01:47:01;;;;;;;14.18;8.52;;;-0.80;99.90;;;;;;5094331;28;20111;-75
2021/04/06 01:49:27;;;;;;;78.25;25.63;;;-0.80;99.90;;;;;;5076168;28;20032;-75
2021/04/06 01:51:55;;;;;;;28.33;11.45;;;-0.80;99.90;;;;;;5075724;28;20390;-76
2021/04/06 01:54:21;;;;;;;56.97;18.05;;;-0.70;99.90;;;;;;5072378;28;20390;-76
2021/04/06 02:00:07;;;;;;;18.60;8.98;;;-0.80;99.90;;;;;;5075463;28;20119;-76
2021/04/06 02:02:29;;;;;;;9.55;5.38;;;-0.80;99.90;;;;;;5069603;28;20041;-76
2021/04/06 02:04:56;;;;;;;13.57;6.50;;;-0.80;99.90;;;;;;5073962;28;20024;-76
2021/04/06 02:07:30;;;;;;;12.43;6.72;;;-0.80;99.90;;;;;;5073910;28;20016;-77
2021/04/06 02:09:58;;;;;;;13.10;5.78;;;-0.80;99.90;;;;;;5074068;28;20151;-76
2021/04/06 02:12:25;;;;;;;7.25;5.53;;;-0.80;99.90;;;;;;5055910;28;20077;-76
2021/04/06 02:14:58;;;;;;;13.25;6.75;;;-0.90;99.90;;;;;;5055476;28;20059;-76
2021/04/06 02:17:23;;;;;;;10.85;6.20;;;-0.90;99.90;;;;;;5073556;28;20052;-76
2021/04/06 02:19:49;;;;;;;15.63;6.65;;;-0.90;99.90;;;;;;5055559;28;20478;-76
2021/04/06 02:22:17;;;;;;;16.42;7.68;;;-0.90;99.90;;;;;;5073474;28;20041;-76
2021/04/06 02:24:45;;;;;;;10.95;7.15;;;-0.90;99.90;;;;;;5073277;28;20466;-76
2021/04/06 02:27:28;;;;;;;20.27;10.30;;;-1.00;99.90;;;;;;5073451;28;20020;-76
2021/04/06 02:30:04;;;;;;;29.02;14.93;;;-1.00;99.90;;;;;;5073391;28;20025;-76
2021/04/06 02:32:32;;;;;;;29.95;13.48;;;-1.00;99.90;;;;;;5088682;28;20134;-76
2021/04/06 02:35:01;;;;;;;32.92;15.30;;;-1.00;99.90;;;;;;5075463;28;20024;-76
2021/04/06 02:37:29;;;;;;;75.60;35.22;;;-1.00;99.90;;;;;;5075356;28;20115;-76
2021/04/06 02:40:00;;;;;;;29.20;12.40;;;-1.10;99.90;;;;;;5075279;28;20500;-77
2021/04/06 02:42:30;;;;;;;8.77;5.75;;;-1.10;99.90;;;;;;5075061;28;20044;-76
2021/04/06 02:45:05;;;;;;;9.43;6.20;;;-1.10;99.90;;;;;;5075150;28;20530;-76
2021/04/06 02:47:32;;;;;;;26.10;10.90;;;-1.10;99.90;;;;;;5075236;28;20059;-76
2021/04/06 02:49:58;;;;;;;52.42;17.45;;;-1.10;99.90;;;;;;5075049;28;20032;-75
2021/04/06 02:52:25;;;;;;;38.80;14.70;;;-1.10;99.90;;;;;;5093227;28;20423;-77
2021/04/06 02:54:52;;;;;;;17.08;8.25;;;-1.20;99.90;;;;;;5082955;28;20437;-76
2021/04/06 02:57:25;;;;;;;27.80;10.27;;;-1.20;99.90;;;;;;5072914;28;20032;-77
2021/04/06 02:59:52;;;;;;;8.60;5.47;;;-1.20;99.90;;;;;;5072807;28;20024;-76
2021/04/06 03:02:19;;;;;;;17.45;7.57;;;-1.20;99.90;;;;;;5072766;28;20501;-76
2021/04/06 03:04:46;;;;;;;18.70;7.22;;;-1.10;99.90;;;;;;5054760;28;20024;-76
2021/04/06 03:07:20;;;;;;;17.92;8.52;;;-1.20;99.90;;;;;;5072593;28;20028;-76
2021/04/06 03:09:57;;;;;;;17.13;6.97;;;-1.20;99.90;;;;;;5072652;28;20072;-75
2021/04/06 03:12:29;;;;;;;12.95;5.75;;;-1.30;99.90;;;;;;5072732;28;20127;-76
2021/04/06 03:14:56;;;;;;;17.98;6.18;;;-1.30;99.90;;;;;;5072461;28;20091;-76
2021/04/06 03:17:22;;;;;;;10.30;6.70;;;-1.30;99.90;;;;;;5091255;28;20016;-77
2021/04/06 03:19:58;;;;;;;7.63;4.43;;;-1.40;99.90;;;;;;5074690;28;20073;-76
2021/04/06 03:22:28;;;;;;;6.97;4.25;;;-1.30;99.90;;;;;;5092850;28;20400;-76
2021/04/06 03:24:55;;;;;;;14.13;8.88;;;-1.40;99.90;;;;;;5074714;28;20020;-76
2021/04/06 03:27:28;;;;;;;11.00;4.80;;;-1.40;99.90;;;;;;5074504;28;20027;-76
2021/04/06 03:29:55;;;;;;;14.13;6.20;;;-1.40;99.90;;;;;;5092806;28;20089;-77
2021/04/06 03:32:22;;;;;;;6.38;4.47;;;-1.40;99.90;;;;;;5074084;28;20599;-77
2021/04/06 03:34:48;;;;;;;27.40;8.98;;;-1.40;99.90;;;;;;5092690;28;20111;-76
2021/04/06 03:37:13;;;;;;;7.07;4.38;;;-1.40;99.90;;;;;;5074467;28;20044;-76
2021/04/06 03:39:40;;;;;;;17.52;6.93;;;-1.40;99.90;;;;;;5074354;28;20016;-76
2021/04/06 03:42:06;;;;;;;11.00;5.22;;;-1.40;99.90;;;;;;5108437;28;20126;-76
2021/04/06 03:44:32;;;;;;;27.23;9.40;;;-1.40;99.90;;;;;;5092517;28;20056;-75
2021/04/06 03:47:04;;;;;;;8.75;5.72;;;-1.40;99.90;;;;;;5077651;28;20086;-76
2021/04/06 03:49:32;;;;;;;14.15;5.70;;;-1.30;99.90;;;;;;5072377;28;20017;-75
2021/04/06 03:52:08;;;;;;;9.88;4.85;;;-1.40;99.90;;;;;;5072328;28;20100;-76
2021/04/06 03:54:43;;;;;;;50.70;15.48;;;-1.30;99.90;;;;;;5054191;28;20024;-75
2021/04/06 03:57:27;;;;;;;11.63;5.80;;;-1.30;99.90;;;;;;5053078;28;20024;-76
2021/04/06 03:59:53;;;;;;;56.78;22.33;;;-1.30;99.90;;;;;;5059256;28;20113;-76
2021/04/06 04:02:19;;;;;;;14.32;6.88;;;-1.40;99.90;;;;;;5092326;28;20086;-77
2021/04/06 04:04:44;;;;;;;20.25;6.50;;;-1.40;99.90;;;;;;5092410;28;20036;-75
2021/04/06 04:07:12;;;;;;;12.88;5.90;;;-1.40;99.90;;;;;;5092353;28;20034;-76
2021/04/06 04:09:38;;;;;;;26.30;9.18;;;-1.40;99.90;;;;;;5074308;28;20028;-76
2021/04/06 04:12:04;;;;;;;31.25;10.55;;;-1.40;99.90;;;;;;5074356;28;20024;-77
2021/04/06 04:14:30;;;;;;;13.27;6.20;;;-1.40;99.90;;;;;;5074214;28;20104;-75
2021/04/06 04:16:56;;;;;;;18.25;7.72;;;-1.40;99.90;;;;;;5081467;28;20140;-76
2021/04/06 04:19:22;;;;;;;33.58;13.13;;;-1.40;99.90;;;;;;5076092;28;20492;-75
2021/04/06 04:21:47;;;;;;;19.13;7.85;;;-1.40;99.90;;;;;;5057781;28;20021;-76
2021/04/06 04:24:13;;;;;;;15.80;7.90;;;-1.40;99.90;;;;;;5075787;28;20020;-76
2021/04/06 04:26:39;;;;;;;62.90;22.13;;;-1.50;99.90;;;;;;5075507;28;20056;-75
2021/04/06 04:29:04;;;;;;;15.15;6.38;;;-1.50;99.90;;;;;;5057342;28;20074;-75
2021/04/06 04:31:30;;;;;;;74.25;27.55;;;-1.50;99.90;;;;;;5075697;28;20398;-76
2021/04/06 04:33:56;;;;;;;15.57;7.22;;;-1.50;99.90;;;;;;5057589;28;20024;-75
2021/04/06 04:36:22;;;;;;;23.40;8.70;;;-1.50;99.90;;;;;;5075661;28;20025;-77
2021/04/06 04:38:47;;;;;;;11.48;6.32;;;-1.50;99.90;;;;;;5057502;28;20025;-75
2021/04/06 04:41:13;;;;;;;10.35;5.63;;;-1.50;99.90;;;;;;5075294;28;20425;-77
2021/04/06 04:43:38;;;;;;;10.18;6.32;;;-1.50;99.90;;;;;;5077167;28;20059;-76
2021/04/06 04:46:04;;;;;;;11.10;6.82;;;-1.50;99.90;;;;;;5095701;28;20111;-75
2021/04/06 04:48:30;;;;;;;28.55;12.18;;;-1.40;99.90;;;;;;5095609;28;20059;-77
2021/04/06 04:50:55;;;;;;;16.80;7.97;;;-1.50;99.90;;;;;;5095629;28;20073;-75
2021/04/06 04:53:21;;;;;;;14.52;6.38;;;-1.50;99.90;;;;;;5077312;28;20020;-76
2021/04/06 04:55:47;;;;;;;13.07;7.38;;;-1.40;99.90;;;;;;5090523;28;20056;-75
2021/04/06 04:58:12;;;;;;;10.63;5.72;;;-1.40;99.90;;;;;;5075296;28;20021;-77
2021/04/06 05:00:38;;;;;;;7.53;5.20;;;-1.40;99.90;;;;;;5057241;28;20070;-76
2021/04/06 05:03:04;;;;;;;13.15;6.22;;;-1.40;99.90;;;;;;5057339;28;20044;-76
2021/04/06 05:05:29;;;;;;;11.43;6.05;;;-1.40;99.90;;;;;;5075054;28;20107;-76
2021/04/06 05:07:55;;;;;;;13.68;6.78;;;-1.40;99.90;;;;;;5057080;28;20435;-76
2021/04/06 05:10:21;;;;;;;12.32;6.82;;;-1.40;99.90;;;;;;5075029;28;20095;-76
2021/04/06 05:12:47;;;;;;;10.77;7.55;;;-1.40;99.90;;;;;;5056731;28;20028;-76
2021/04/06 05:15:14;;;;;;;14.98;7.38;;;-1.40;99.90;;;;;;5056443;28;20028;-76
2021/04/06 05:17:39;;;;;;;13.15;6.38;;;-1.50;99.90;;;;;;5051683;28;20359;-76
2021/04/06 05:20:07;;;;;;;14.52;6.88;;;-1.40;99.90;;;;;;5055511;28;20509;-76
2021/04/06 05:22:33;;;;;;;18.73;7.47;;;-1.40;99.90;;;;;;5055828;28;20033;-76
2021/04/06 05:24:58;;;;;;;12.07;6.68;;;-1.40;99.90;;;;;;5054891;28;20112;-76
2021/04/06 05:27:24;;;;;;;19.50;10.00;;;-1.40;99.90;;;;;;5072011;28;20028;-76
2021/04/06 05:29:50;;;;;;;16.83;7.00;;;-1.40;99.90;;;;;;5054082;28;20147;-76
2021/04/06 05:32:15;;;;;;;13.45;7.68;;;-1.40;99.90;;;;;;5053108;28;20063;-77
2021/04/06 05:34:41;;;;;;;29.05;12.20;;;-1.40;99.90;;;;;;5073558;28;20079;-76
2021/04/06 05:37:07;;;;;;;28.00;12.95;;;-1.30;99.90;;;;;;5057959;28;20059;-77
2021/04/06 05:39:33;;;;;;;13.07;6.90;;;-1.30;99.90;;;;;;5071545;28;20036;-76
2021/04/06 05:41:59;;;;;;;50.15;19.80;;;-1.30;99.90;;;;;;5062570;28;20077;-77
2021/04/06 05:44:25;;;;;;;21.73;8.32;;;-1.30;99.90;;;;;;5072576;28;20032;-76
2021/04/06 05:46:53;;;;;;;11.05;7.20;;;-1.30;99.90;;;;;;5062422;28;20021;-77
2021/04/06 05:49:23;;;;;;;24.58;8.60;;;-1.30;99.90;;;;;;5072925;28;20017;-75
2021/04/06 05:51:48;;;;;;;27.02;11.23;;;-1.30;99.90;;;;;;5062486;28;20035;-76
2021/04/06 05:54:15;;;;;;;18.73;7.40;;;-1.30;99.90;;;;;;5072979;28;20474;-76
2021/04/06 05:56:41;;;;;;;18.00;9.20;;;-1.30;99.90;;;;;;5056920;28;20017;-76
2021/04/06 05:59:08;;;;;;;19.10;11.02;;;-1.20;99.90;;;;;;5073335;28;20063;-76
2021/04/06 06:01:38;;;;;;;30.92;13.75;;;-1.10;99.90;;;;;;5059147;28;20020;-77
2021/04/06 06:04:06;;;;;;;28.50;13.43;;;-1.10;99.90;;;;;;5094189;28;20032;-76
2021/04/06 06:06:32;;;;;;;22.55;10.77;;;-1.10;99.90;;;;;;5075289;28;20020;-76
2021/04/06 06:08:59;;;;;;;23.38;10.00;;;-1.00;99.90;;;;;;5093757;28;20088;-75
2021/04/06 06:11:25;;;;;;;47.78;18.75;;;-1.00;99.90;;;;;;5086509;28;20537;-76
2021/04/06 06:13:51;;;;;;;40.90;15.45;;;-1.00;99.90;;;;;;5069035;28;20046;-75
2021/04/06 06:16:23;;;;;;;25.90;11.75;;;-1.00;99.90;;;;;;5083276;28;20059;-76
2021/04/06 06:19:06;;;;;;;30.52;13.38;;;-0.90;99.90;;;;;;5053263;28;20035;-76
2021/04/06 06:21:37;;;;;;;25.38;9.30;;;-0.90;99.90;;;;;;5072514;28;20017;-76
2021/04/06 06:24:04;;;;;;;34.30;17.65;;;-0.90;99.90;;;;;;5053704;28;20040;-76
2021/04/06 06:26:30;;;;;;;28.77;14.90;;;-1.00;99.90;;;;;;5056008;28;20070;-76
2021/04/06 06:29:29;;;;;;;21.77;12.13;;;-1.00;99.90;;;;;;5073161;28;20032;-75
2021/04/06 06:31:59;;;;;;;39.45;13.52;;;-1.10;99.90;;;;;;5076147;28;20489;-75
2021/04/06 06:34:35;;;;;;;25.63;12.45;;;-1.00;99.90;;;;;;5066986;28;20051;-76
2021/04/06 06:37:22;;;;;;;18.75;9.07;;;-1.00;99.90;;;;;;5063101;28;20020;-76
2021/04/06 06:39:54;;;;;;;20.02;13.13;;;-1.10;99.90;;;;;;5083533;28;20054;-76
2021/04/06 06:42:23;;;;;;;22.55;10.88;;;-1.10;99.90;;;;;;5093412;28;20032;-76
2021/04/06 06:44:49;;;;;;;15.98;8.40;;;-1.10;99.90;;;;;;5068762;28;20477;-76
2021/04/06 06:47:24;;;;;;;22.35;8.98;;;-1.20;99.90;;;;;;5093217;28;20073;-76
2021/04/06 06:49:53;;;;;;;34.08;13.80;;;-1.10;99.90;;;;;;5065456;28;20048;-76
2021/04/06 06:52:22;;;;;;;22.15;11.77;;;-1.10;99.90;;;;;;5092860;28;20068;-74
2021/04/06 06:54:51;;;;;;;24.73;12.90;;;-1.10;99.90;;;;;;5080512;28;20027;-76
2021/04/06 06:57:18;;;;;;;39.88;17.83;;;-1.00;99.90;;;;;;5074748;28;20490;-75
2021/04/06 06:59:47;;;;;;;73.95;25.20;;;-1.00;99.90;;;;;;5061573;28;20028;-75
2021/04/06 07:02:29;;;;;;;24.67;10.93;;;-0.90;99.90;;;;;;5066428;28;20031;-76
2021/04/06 07:05:28;;;;;;;12.60;7.40;;;-0.90;99.90;;;;;;5073210;28;20100;-76
2021/04/06 07:08:04;;;;;;;44.47;19.65;;;-0.90;99.90;;;;;;5048366;28;20030;-77
2021/04/06 07:10:35;;;;;;;28.00;12.57;;;-0.90;99.90;;;;;;5064989;28;20028;-76
2021/04/06 07:13:06;;;;;;;44.10;18.35;;;-0.80;99.90;;;;;;5085428;28;20012;-76
2021/04/06 07:15:34;;;;;;;37.63;16.58;;;-0.70;99.90;;;;;;5066047;28;20522;-76
2021/04/06 07:18:22;;;;;;;52.47;24.20;;;-0.70;99.90;;;;;;5092281;28;20436;-76
2021/04/06 07:20:58;;;;;;;54.90;24.58;;;-0.70;99.90;;;;;;5064394;28;20035;-76
2021/04/06 07:24:03;;;;;;;53.63;21.83;;;-0.60;99.90;;;;;;5086560;28;20516;-76
2021/04/06 07:26:30;;;;;;;46.38;20.08;;;-0.60;99.90;;;;;;5022587;28;20037;-77
2021/04/06 07:28:57;;;;;;;35.53;16.10;;;-0.70;99.90;;;;;;5052793;28;20055;-76
2021/04/06 07:31:23;;;;;;;25.63;12.82;;;-0.70;99.90;;;;;;5049946;28;20074;-77
2021/04/06 07:33:49;;;;;;;21.73;10.65;;;-0.70;99.90;;;;;;5054357;28;20025;-77
2021/04/06 07:36:21;;;;;;;29.42;13.20;;;-0.70;99.90;;;;;;5054710;28;20116;-76
2021/04/06 07:38:48;;;;;;;;;;;-0.70;99.90;;;;;;5053278;28;20373;-76
2021/04/06 07:41:16;;;;;;;35.15;17.00;;;-0.70;99.90;;;;;;5077858;28;19912;-76
2021/04/06 07:43:42;;;;;;;20.48;10.73;;;-0.70;99.90;;;;;;5058084;28;20036;-76
2021/04/06 07:46:08;;;;;;;36.70;15.10;;;-0.50;99.90;;;;;;5064418;28;20035;-76
2021/04/06 07:49:06;;;;;;;35.83;17.38;;;-0.50;99.90;;;;;;5090129;28;20020;-76
2021/04/06 07:51:36;;;;;;;19.80;9.18;;;-0.40;99.90;;;;;;5083396;28;20182;-77
2021/04/06 07:54:10;;;;;;;79.95;37.65;;;-0.50;99.90;;;;;;5084583;28;20077;-76
2021/04/06 07:57:01;;;;;;;28.55;14.38;;;-0.30;99.90;;;;;;5085926;28;20046;-77
2021/04/06 07:59:27;;;;;;;62.33;28.23;;;-0.10;99.90;;;;;;5039135;28;20470;-76
2021/04/06 08:01:56;;;;;;;116.35;51.03;;;0.10;99.90;;;;;;5071267;28;20105;-76
2021/04/06 08:04:22;;;;;;;44.03;21.80;;;0.10;99.90;;;;;;5075531;28;20021;-78
2021/04/06 08:06:50;;;;;;;31.92;14.40;;;0.10;99.90;;;;;;5057342;28;20115;-77
2021/04/06 08:09:43;;;;;;;18.25;9.43;;;0.00;98.40;;;;;;5076178;28;20024;-76
2021/04/06 08:12:12;;;;;;;36.55;17.10;;;0.00;96.20;;;;;;5053062;28;20397;-78
2021/04/06 08:14:40;;;;;;;59.78;28.35;;;0.10;96.80;;;;;;5054534;28;20403;-78
2021/04/06 08:17:24;;;;;;;23.17;11.55;;;0.20;96.80;;;;;;5070856;28;20078;-78
2021/04/06 08:19:51;;;;;;;37.58;17.17;;;0.30;94.60;;;;;;5071698;28;20493;-78
2021/04/06 08:22:21;;;;;;;23.42;12.27;;;0.40;94.10;;;;;;5063085;28;20033;-77
2021/04/06 08:24:47;;;;;;;31.20;16.73;;;0.40;93.60;;;;;;5057947;28;20022;-76
2021/04/06 08:27:33;;;;;;;50.78;20.00;;;0.60;89.90;;;;;;5075828;28;20091;-75
2021/04/06 08:30:26;;;;;;;39.20;16.20;;;0.80;88.70;;;;;;5057521;28;20027;-76
2021/04/06 08:32:58;;;;;;;17.05;11.05;;;0.80;86.80;;;;;;5073925;28;20030;-76
2021/04/06 08:35:45;;;;;;;60.20;23.43;;;0.90;86.50;;;;;;5055738;28;20033;-75
2021/04/06 08:38:23;;;;;;;14.98;7.32;;;0.90;86.40;;;;;;5073660;28;20035;-73
2021/04/06 08:41:12;;;;;;;18.48;7.03;;;0.80;82.40;;;;;;5074569;28;20622;-74
2021/04/06 08:43:42;;;;;;;13.25;7.53;;;0.90;83.20;;;;;;5064386;28;20036;-73
2021/04/06 08:46:40;;;;;;;17.23;6.63;;;0.70;82.10;;;;;;5075850;28;20032;-75
2021/04/06 08:49:23;;;;;;;12.50;6.63;;;0.60;83.00;;;;;;5069279;28;20494;-76
2021/04/06 08:51:56;;;;;;;11.05;7.68;;;0.60;85.50;;;;;;5095739;28;20107;-76
2021/04/06 08:54:26;;;;;;;21.70;9.32;;;0.70;86.10;;;;;;5080167;28;20070;-75
2021/04/06 08:57:00;;;;;;;9.82;6.15;;;0.70;85.70;;;;;;5060456;28;20025;-76
2021/04/06 08:59:35;;;;;;;14.07;8.48;;;1.00;83.10;;;;;;5089758;28;20456;-73
2021/04/06 09:02:25;;;;;;;16.52;7.70;;;1.10;81.00;;;;;;5093606;28;20027;-73
2021/04/06 09:04:56;;;;;;;14.65;6.18;;;1.10;82.30;;;;;;5032164;28;20028;-73
2021/04/06 09:07:26;;;;;;;12.52;7.25;;;1.10;81.40;;;;;;5037391;28;20414;-74
2021/04/06 09:10:11;;;;;;;29.50;14.88;;;1.00;84.70;;;;;;5059235;28;20033;-74
2021/04/06 09:12:42;;;;;;;28.48;12.15;;;1.10;83.80;;;;;;5074016;28;20020;-74
2021/04/06 09:15:10;;;;;;;36.05;16.02;;;1.30;82.90;;;;;;5090265;28;20439;-73
2021/04/06 09:17:37;;;;;;;39.63;16.02;;;1.50;83.40;;;;;;5061669;28;20044;-74
2021/04/06 09:20:17;;;;;;;31.00;14.05;;;1.70;81.80;;;;;;5094596;28;20020;-74
2021/04/06 09:22:50;;;;;;;37.35;16.52;;;1.70;80.10;;;;;;5091146;28;20409;-74
2021/04/06 09:25:20;;;;;;;38.42;17.00;;;1.80;80.80;;;;;;5062086;28;20024;-73
2021/04/06 09:27:56;;;;;;;24.98;11.57;;;2.00;79.90;;;;;;5088554;28;20064;-74
2021/04/06 09:30:35;;;;;;;20.83;9.77;;;2.10;78.70;;;;;;5073304;28;20019;-74
2021/04/06 09:33:03;;;;;;;34.08;13.43;;;2.00;76.80;;;;;;5055228;28;20024;-74
2021/04/06 09:35:29;;;;;;;11.55;5.07;;;1.90;76.40;;;;;;5074724;28;20020;-74
2021/04/06 09:37:58;;;;;;;14.88;7.30;;;1.60;72.60;;;;;;5074771;28;20524;-74
2021/04/06 09:40:35;;;;;;;12.77;6.47;;;1.70;75.50;;;;;;5081537;28;20056;-74
2021/04/06 09:43:01;;;;;;;35.65;15.82;;;1.50;76.50;;;;;;5079650;28;20032;-74
2021/04/06 09:45:28;;;;;;;16.63;8.35;;;1.50;81.00;;;;;;5075033;28;20020;-74
2021/04/06 09:47:54;;;;;;;19.60;8.93;;;1.70;74.70;;;;;;5057249;28;20029;-74
2021/04/06 09:50:20;;;;;;;14.90;8.20;;;1.80;77.70;;;;;;5076898;28;20618;-74
2021/04/06 09:52:46;;;;;;;18.58;9.48;;;2.00;79.40;;;;;;5081012;28;20023;-74
2021/04/06 09:55:13;;;;;;;12.75;6.65;;;2.00;78.70;;;;;;5091803;28;20354;-74
2021/04/06 09:57:43;;;;;;;31.70;11.52;;;1.90;74.60;;;;;;5052192;28;20568;-74
2021/04/06 10:00:16;;;;;;;398.10;128.35;;;2.00;74.80;;;;;;5054360;28;20027;-74
2021/04/06 10:02:45;;;;;;;;;;;2.30;77.00;;;;;;5080780;28;20032;-74
2021/04/06 10:05:23;;;;;;;335.63;102.43;;;2.40;76.80;;;;;;5056052;28;19974;-74
2021/04/06 10:07:49;;;;;;;57.42;16.52;;;2.10;68.80;;;;;;5059921;28;20025;-74
2021/04/06 10:10:24;;;;;;;629.60;195.00;;;1.90;69.70;;;;;;5074039;28;20047;-73
2021/04/06 10:12:51;;;;;;;471.35;143.73;;;1.80;73.60;;;;;;5092378;28;20106;-73
2021/04/06 10:15:25;;;;;;;439.95;129.45;;;1.70;72.00;;;;;;5080718;28;20017;-73
2021/04/06 10:17:52;;;;;;;535.25;164.07;;;2.00;77.90;;;;;;5057713;28;20013;-73
2021/04/06 10:20:24;;;;;;;36.90;13.63;;;2.40;77.80;;;;;;5077079;28;20027;-73
2021/04/06 10:22:56;;;;;;;138.57;40.13;;;2.60;70.70;;;;;;5070479;28;20048;-74
2021/04/06 10:25:27;;;;;;;288.23;78.88;;;2.40;66.50;;;;;;5094037;28;20040;-73
2021/04/06 10:27:56;;;;;;;140.05;42.25;;;2.50;69.40;;;;;;5085301;28;20074;-74
2021/04/06 10:30:26;;;;;;;153.43;49.38;;;2.50;71.60;;;;;;5088229;28;20099;-74
2021/04/06 10:33:02;;;;;;;256.27;73.75;;;2.50;70.90;;;;;;5093677;28;20024;-73
2021/04/06 10:35:31;;;;;;;170.32;44.75;;;2.50;69.60;;;;;;5093787;28;20026;-73
2021/04/06 10:37:59;;;;;;;226.75;61.95;;;2.80;69.50;;;;;;5069302;28;20099;-74
2021/04/06 10:40:35;;;;;;;33.40;11.43;;;2.90;66.20;;;;;;5093640;28;20028;-73
2021/04/06 10:43:09;;;;;;;35.25;12.93;;;3.00;65.50;;;;;;5070846;28;20037;-74
2021/04/06 10:45:45;;;;;;;406.33;111.38;;;3.20;69.50;;;;;;5071556;28;20028;-73
2021/04/06 10:48:11;;;;;;;192.30;64.75;;;3.30;67.00;;;;;;5088548;28;20359;-73
2021/04/06 10:50:41;;;;;;;257.45;78.78;;;3.30;63.80;;;;;;5065880;28;20027;-73
2021/04/06 10:53:26;;;;;;;109.20;30.95;;;3.20;64.10;;;;;;5087635;28;20473;-73
2021/04/06 10:55:57;;;;;;;146.70;39.25;;;3.40;67.20;;;;;;5058066;28;20065;-74
2021/04/06 10:58:32;;;;;;;131.25;37.33;;;3.50;63.50;;;;;;5063218;28;20455;-74
2021/04/06 11:01:09;;;;;;;89.65;25.23;;;3.40;60.60;;;;;;5061971;28;20429;-73
2021/04/06 11:03:48;;;;;;;85.53;24.67;;;3.30;59.60;;;;;;5085031;28;20077;-74
2021/04/06 11:06:21;;;;;;;15.65;7.40;;;3.10;61.30;;;;;;5063548;28;20540;-73
2021/04/06 11:08:50;;;;;;;124.60;38.03;;;2.90;60.30;;;;;;5092556;28;20024;-73
2021/04/06 11:11:31;;;;;;;68.18;24.98;;;2.90;58.40;;;;;;5060548;28;20055;-74
2021/04/06 11:13:59;;;;;;;37.97;13.82;;;2.90;59.80;;;;;;5060893;28;20422;-73
2021/04/06 11:16:25;;;;;;;20.83;9.73;;;3.20;62.50;;;;;;5092673;28;20044;-74
2021/04/06 11:18:59;;;;;;;73.47;22.73;;;3.30;60.50;;;;;;5088367;28;20517;-73
2021/04/06 11:21:25;;;;;;;89.45;27.38;;;3.20;60.30;;;;;;5092431;28;20031;-74
2021/04/06 11:23:51;;;;;;;47.10;19.98;;;3.10;59.50;;;;;;5092117;28;20119;-73
2021/04/06 11:26:17;;;;;;;123.55;36.75;;;3.00;59.60;;;;;;5092406;28;20031;-74
2021/04/06 11:28:44;;;;;;;66.97;24.50;;;3.00;60.10;;;;;;5092244;28;20021;-74
2021/04/06 11:31:11;;;;;;;6.45;4.28;;;2.90;58.50;;;;;;5092204;28;20035;-74
2021/04/06 11:33:37;;;;;;;11.93;3.70;;;2.90;57.50;;;;;;5082637;28;20588;-75
2021/04/06 11:36:03;;;;;;;80.05;24.63;;;2.80;57.50;;;;;;5065828;28;20111;-73
2021/04/06 11:38:29;;;;;;;120.65;37.67;;;2.70;56.60;;;;;;5091548;28;20103;-83
2021/04/06 11:40:55;;;;;;;179.73;52.67;;;2.50;56.20;;;;;;5060067;28;20028;-80
2021/04/06 11:43:21;;;;;;;365.13;119.00;;;2.50;58.40;;;;;;5065631;28;20024;-81
2021/04/06 11:45:47;;;;;;;89.55;37.03;;;2.40;57.90;;;;;;5055519;28;20394;-79
2021/04/06 11:48:13;;;;;;;14.13;7.35;;;2.60;59.00;;;;;;5063071;28;20051;-79
2021/04/06 11:50:38;;;;;;;11.80;7.78;;;2.60;58.50;;;;;;5091543;28;20028;-86
2021/04/06 11:53:04;;;;;;;35.03;11.30;;;2.50;58.80;;;;;;5091201;28;20122;-83
2021/04/06 11:55:30;;;;;;;36.35;14.40;;;2.40;57.30;;;;;;5091692;28;20026;-84
2021/04/06 11:57:56;;;;;;;219.30;58.40;;;2.30;58.40;;;;;;5064467;28;20110;-84
2021/04/06 12:00:22;;;;;;;48.20;14.93;;;2.30;59.90;;;;;;5091894;28;20470;-85
2021/04/06 12:02:48;;;;;;;53.30;20.85;;;2.20;60.90;;;;;;5092149;28;20059;-82
2021/04/06 12:05:13;;;;;;;258.35;96.97;;;2.00;64.20;;;;;;5058018;28;20056;-82
2021/04/06 12:07:39;;;;;;;27.65;14.60;;;1.80;64.80;;;;;;5049529;28;20028;-81
2021/04/06 12:10:06;;;;;;;16.25;8.15;;;1.80;62.10;;;;;;5053437;28;20040;-82
2021/04/06 12:12:32;;;;;;;22.33;9.45;;;2.10;61.70;;;;;;5033157;28;20021;-83
2021/04/06 12:14:58;;;;;;;11.50;6.78;;;2.60;63.70;;;;;;5050736;28;20029;-85
2021/04/06 12:17:24;;;;;;;13.82;8.57;;;2.90;63.50;;;;;;5045482;28;20033;-85
2021/04/06 12:19:49;;;;;;;9.27;5.78;;;3.20;61.80;;;;;;5035933;28;20534;-86
2021/04/06 12:22:15;;;;;;;12.95;6.95;;;3.30;60.00;;;;;;5054465;28;20061;-88
2021/04/06 12:24:41;;;;;;;9.30;5.75;;;3.60;59.70;;;;;;5061730;28;20104;-84
2021/04/06 12:27:07;;;;;;;18.20;7.22;;;3.80;57.60;;;;;;5056600;28;20410;-84
2021/04/06 12:29:33;;;;;;;23.98;9.85;;;4.00;57.20;;;;;;5038504;28;20083;-88
2021/04/06 12:31:59;;;;;;;33.22;17.77;;;4.10;56.50;;;;;;5036750;28;20033;-83
2021/04/06 12:34:24;;;;;;;30.05;14.88;;;4.40;57.50;;;;;;5059879;28;20040;-88
2021/04/06 12:36:50;;;;;;;13.80;6.85;;;4.50;55.80;;;;;;5032676;28;20021;-86
2021/04/06 12:39:16;;;;;;;17.42;9.27;;;4.40;53.90;;;;;;5036427;28;20075;-83
2021/04/06 12:41:42;;;;;;;15.27;7.88;;;4.10;52.30;;;;;;5038663;28;20467;-84
2021/04/06 12:44:09;;;;;;;28.75;9.70;;;4.10;53.10;;;;;;5052629;28;20041;-84
2021/04/06 12:46:34;;;;;;;47.08;14.63;;;3.60;51.30;;;;;;5053129;28;20482;-84
2021/04/06 12:49:00;;;;;;;43.03;13.65;;;3.50;49.90;;;;;;5035007;28;20066;-85
2021/04/06 12:51:26;;;;;;;22.25;8.55;;;3.70;54.70;;;;;;5033872;28;20086;-84